CheckWX is a tool to help pilots better visualize weather data.  It is not intended as a substitute for an official pre-flight weather briefing.

13:03:16 UTC

LFPV TAF
Villacoublay-Vélizy (BA 107) Air Base Airport
Villacoublay/Vélizy, France
TAF LFPV 310800Z 3109/0109 04010KT CAVOK

Mar-31@
09:00 UTC

Mar-31 @ 09:00 UTC

Apr-1@
09:00 UTC

Apr-1 @ 09:00 UTC

TAF LFPV 310800Z 3109/0109 04010KT CAVOK
Wind
  • 040° at 10 KTS
Conditions
No significant weather
Cloud Levels
  • No significant clouds